sensor_id;sensor_type;location;lat;lon;timestamp;P1;durP1;ratioP1;P2;durP2;ratioP2
25824;SDS011;13658;44.534;18.694;2023-04-22T00:00:38;47.53;;;25.50;;
25824;SDS011;13658;44.534;18.694;2023-04-22T00:03:05;45.85;;;23.60;;
25824;SDS011;13658;44.534;18.694;2023-04-22T00:05:32;46.13;;;24.75;;
25824;SDS011;13658;44.534;18.694;2023-04-22T00:07:58;43.30;;;22.80;;
25824;SDS011;13658;44.534;18.694;2023-04-22T00:10:25;42.15;;;22.20;;
25824;SDS011;13658;44.534;18.694;2023-04-22T00:12:51;41.83;;;21.90;;
25824;SDS011;13658;44.534;18.694;2023-04-22T00:15:17;36.92;;;19.95;;
25824;SDS011;13658;44.534;18.694;2023-04-22T00:17:46;36.35;;;20.60;;
25824;SDS011;13658;44.534;18.694;2023-04-22T00:20:12;39.95;;;20.45;;
25824;SDS011;13658;44.534;18.694;2023-04-22T00:22:39;45.47;;;25.08;;
25824;SDS011;13658;44.534;18.694;2023-04-22T00:25:05;45.95;;;24.67;;
25824;SDS011;13658;44.534;18.694;2023-04-22T00:27:32;46.70;;;25.35;;
25824;SDS011;13658;44.534;18.694;2023-04-22T00:29:58;41.72;;;23.00;;
25824;SDS011;13658;44.534;18.694;2023-04-22T00:32:24;40.78;;;22.55;;
25824;SDS011;13658;44.534;18.694;2023-04-22T00:34:50;38.58;;;22.20;;
25824;SDS011;13658;44.534;18.694;2023-04-22T00:37:16;37.30;;;21.33;;
25824;SDS011;13658;44.534;18.694;2023-04-22T00:39:42;39.25;;;22.00;;
25824;SDS011;13658;44.534;18.694;2023-04-22T00:42:08;39.95;;;20.10;;
25824;SDS011;13658;44.534;18.694;2023-04-22T00:44:35;35.40;;;19.02;;
25824;SDS011;13658;44.534;18.694;2023-04-22T00:47:01;30.02;;;17.95;;
25824;SDS011;13658;44.534;18.694;2023-04-22T00:49:28;33.28;;;16.52;;
25824;SDS011;13658;44.534;18.694;2023-04-22T00:51:54;32.70;;;15.95;;
25824;SDS011;13658;44.534;18.694;2023-04-22T00:54:20;28.30;;;15.85;;
25824;SDS011;13658;44.534;18.694;2023-04-22T00:56:47;29.42;;;17.17;;
25824;SDS011;13658;44.534;18.694;2023-04-22T00:59:14;32.88;;;17.02;;
25824;SDS011;13658;44.534;18.694;2023-04-22T01:01:40;31.23;;;18.98;;
25824;SDS011;13658;44.534;18.694;2023-04-22T01:04:07;35.28;;;18.95;;
25824;SDS011;13658;44.534;18.694;2023-04-22T01:06:36;37.88;;;20.42;;
25824;SDS011;13658;44.534;18.694;2023-04-22T01:09:05;38.38;;;19.60;;
25824;SDS011;13658;44.534;18.694;2023-04-22T01:11:34;33.92;;;18.90;;
25824;SDS011;13658;44.534;18.694;2023-04-22T01:14:00;34.10;;;18.83;;
25824;SDS011;13658;44.534;18.694;2023-04-22T01:16:28;31.45;;;18.02;;
25824;SDS011;13658;44.534;18.694;2023-04-22T01:18:55;29.35;;;16.70;;
25824;SDS011;13658;44.534;18.694;2023-04-22T01:21:22;35.72;;;20.52;;
25824;SDS011;13658;44.534;18.694;2023-04-22T01:23:49;36.17;;;20.08;;
25824;SDS011;13658;44.534;18.694;2023-04-22T01:26:18;38.70;;;19.70;;
25824;SDS011;13658;44.534;18.694;2023-04-22T01:28:44;39.97;;;20.92;;
25824;SDS011;13658;44.534;18.694;2023-04-22T01:31:11;40.45;;;22.42;;
25824;SDS011;13658;44.534;18.694;2023-04-22T01:33:37;38.90;;;20.23;;
25824;SDS011;13658;44.534;18.694;2023-04-22T01:36:03;34.88;;;19.83;;
25824;SDS011;13658;44.534;18.694;2023-04-22T01:38:29;40.00;;;21.27;;
25824;SDS011;13658;44.534;18.694;2023-04-22T01:40:58;31.33;;;19.90;;
25824;SDS011;13658;44.534;18.694;2023-04-22T01:43:26;36.50;;;20.08;;
25824;SDS011;13658;44.534;18.694;2023-04-22T01:45:55;38.30;;;19.20;;
25824;SDS011;13658;44.534;18.694;2023-04-22T01:48:22;35.58;;;18.35;;
25824;SDS011;13658;44.534;18.694;2023-04-22T01:50:48;28.33;;;17.80;;
25824;SDS011;13658;44.534;18.694;2023-04-22T01:53:14;28.30;;;17.17;;
25824;SDS011;13658;44.534;18.694;2023-04-22T01:55:40;30.48;;;17.80;;
25824;SDS011;13658;44.534;18.694;2023-04-22T01:58:11;32.25;;;15.65;;
25824;SDS011;13658;44.534;18.694;2023-04-22T02:00:38;30.20;;;17.08;;
25824;SDS011;13658;44.534;18.694;2023-04-22T02:03:04;29.50;;;15.93;;
25824;SDS011;13658;44.534;18.694;2023-04-22T02:05:30;27.95;;;16.40;;
25824;SDS011;13658;44.534;18.694;2023-04-22T02:07:56;34.70;;;16.88;;
25824;SDS011;13658;44.534;18.694;2023-04-22T02:13:17;28.42;;;15.27;;
25824;SDS011;13658;44.534;18.694;2023-04-22T02:15:43;28.60;;;15.85;;
25824;SDS011;13658;44.534;18.694;2023-04-22T02:18:09;28.95;;;14.77;;
25824;SDS011;13658;44.534;18.694;2023-04-22T02:20:36;26.35;;;16.08;;
25824;SDS011;13658;44.534;18.694;2023-04-22T02:23:02;28.95;;;17.83;;
25824;SDS011;13658;44.534;18.694;2023-04-22T02:25:29;30.40;;;17.88;;
25824;SDS011;13658;44.534;18.694;2023-04-22T02:27:56;29.33;;;18.25;;
25824;SDS011;13658;44.534;18.694;2023-04-22T02:30:22;30.70;;;18.10;;
25824;SDS011;13658;44.534;18.694;2023-04-22T02:32:49;26.42;;;16.80;;
25824;SDS011;13658;44.534;18.694;2023-04-22T02:35:14;25.45;;;15.85;;
25824;SDS011;13658;44.534;18.694;2023-04-22T02:37:40;27.05;;;17.00;;
25824;SDS011;13658;44.534;18.694;2023-04-22T02:40:07;28.63;;;16.70;;
25824;SDS011;13658;44.534;18.694;2023-04-22T02:42:33;30.98;;;16.77;;
25824;SDS011;13658;44.534;18.694;2023-04-22T02:45:00;27.13;;;16.02;;
25824;SDS011;13658;44.534;18.694;2023-04-22T02:47:26;31.30;;;16.30;;
25824;SDS011;13658;44.534;18.694;2023-04-22T02:49:52;33.13;;;17.17;;
25824;SDS011;13658;44.534;18.694;2023-04-22T02:52:18;30.65;;;18.15;;
25824;SDS011;13658;44.534;18.694;2023-04-22T02:54:45;24.40;;;14.68;;
25824;SDS011;13658;44.534;18.694;2023-04-22T02:57:10;22.55;;;15.15;;
25824;SDS011;13658;44.534;18.694;2023-04-22T02:59:36;25.20;;;15.40;;
25824;SDS011;13658;44.534;18.694;2023-04-22T03:02:03;24.92;;;14.90;;
25824;SDS011;13658;44.534;18.694;2023-04-22T03:04:49;26.73;;;15.23;;
25824;SDS011;13658;44.534;18.694;2023-04-22T03:07:19;25.33;;;15.50;;
25824;SDS011;13658;44.534;18.694;2023-04-22T03:09:45;30.20;;;15.55;;
25824;SDS011;13658;44.534;18.694;2023-04-22T03:12:11;22.20;;;14.02;;
25824;SDS011;13658;44.534;18.694;2023-04-22T03:14:37;27.95;;;15.02;;
25824;SDS011;13658;44.534;18.694;2023-04-22T03:17:03;30.73;;;15.98;;
25824;SDS011;13658;44.534;18.694;2023-04-22T03:19:29;26.60;;;15.40;;
25824;SDS011;13658;44.534;18.694;2023-04-22T03:21:56;29.02;;;15.70;;
25824;SDS011;13658;44.534;18.694;2023-04-22T03:24:23;32.85;;;15.27;;
25824;SDS011;13658;44.534;18.694;2023-04-22T03:26:51;32.28;;;16.85;;
25824;SDS011;13658;44.534;18.694;2023-04-22T03:29:17;30.70;;;15.60;;
25824;SDS011;13658;44.534;18.694;2023-04-22T03:31:43;27.05;;;15.82;;
25824;SDS011;13658;44.534;18.694;2023-04-22T03:34:09;27.08;;;16.00;;
25824;SDS011;13658;44.534;18.694;2023-04-22T03:36:36;34.33;;;17.00;;
25824;SDS011;13658;44.534;18.694;2023-04-22T03:39:02;28.48;;;15.48;;
25824;SDS011;13658;44.534;18.694;2023-04-22T03:41:29;27.17;;;15.18;;
25824;SDS011;13658;44.534;18.694;2023-04-22T03:43:55;28.90;;;14.75;;
25824;SDS011;13658;44.534;18.694;2023-04-22T03:46:21;23.92;;;13.60;;
25824;SDS011;13658;44.534;18.694;2023-04-22T03:48:58;28.00;;;17.17;;
25824;SDS011;13658;44.534;18.694;2023-04-22T03:51:30;25.35;;;15.98;;
25824;SDS011;13658;44.534;18.694;2023-04-22T03:53:58;28.73;;;16.08;;
25824;SDS011;13658;44.534;18.694;2023-04-22T03:56:27;29.60;;;16.10;;
25824;SDS011;13658;44.534;18.694;2023-04-22T03:58:57;27.00;;;16.42;;
25824;SDS011;13658;44.534;18.694;2023-04-22T04:01:23;27.65;;;16.65;;
25824;SDS011;13658;44.534;18.694;2023-04-22T04:03:53;29.58;;;17.08;;
25824;SDS011;13658;44.534;18.694;2023-04-22T04:06:21;29.42;;;16.70;;
25824;SDS011;13658;44.534;18.694;2023-04-22T04:08:47;27.73;;;15.18;;
25824;SDS011;13658;44.534;18.694;2023-04-22T04:11:13;30.52;;;15.13;;
25824;SDS011;13658;44.534;18.694;2023-04-22T04:13:39;27.90;;;17.02;;
25824;SDS011;13658;44.534;18.694;2023-04-22T04:16:38;31.30;;;17.35;;
25824;SDS011;13658;44.534;18.694;2023-04-22T04:19:10;31.52;;;16.10;;
25824;SDS011;13658;44.534;18.694;2023-04-22T04:21:36;27.50;;;14.88;;
25824;SDS011;13658;44.534;18.694;2023-04-22T04:24:05;28.25;;;16.58;;
25824;SDS011;13658;44.534;18.694;2023-04-22T04:26:36;24.80;;;15.13;;
25824;SDS011;13658;44.534;18.694;2023-04-22T04:29:11;28.10;;;15.45;;
25824;SDS011;13658;44.534;18.694;2023-04-22T04:31:40;23.98;;;13.90;;
25824;SDS011;13658;44.534;18.694;2023-04-22T04:34:06;30.75;;;15.02;;
25824;SDS011;13658;44.534;18.694;2023-04-22T04:36:35;25.20;;;14.10;;
25824;SDS011;13658;44.534;18.694;2023-04-22T04:39:14;25.65;;;14.45;;
25824;SDS011;13658;44.534;18.694;2023-04-22T04:41:44;27.38;;;15.55;;
25824;SDS011;13658;44.534;18.694;2023-04-22T04:44:10;33.25;;;16.65;;
25824;SDS011;13658;44.534;18.694;2023-04-22T04:46:37;28.63;;;15.65;;
25824;SDS011;13658;44.534;18.694;2023-04-22T04:49:05;26.25;;;16.10;;
25824;SDS011;13658;44.534;18.694;2023-04-22T04:51:40;29.27;;;15.35;;
25824;SDS011;13658;44.534;18.694;2023-04-22T04:54:06;31.98;;;16.17;;
25824;SDS011;13658;44.534;18.694;2023-04-22T04:56:36;28.23;;;16.30;;
25824;SDS011;13658;44.534;18.694;2023-04-22T04:59:03;32.72;;;17.15;;
25824;SDS011;13658;44.534;18.694;2023-04-22T05:01:31;26.92;;;16.15;;
25824;SDS011;13658;44.534;18.694;2023-04-22T05:04:02;24.75;;;15.07;;
25824;SDS011;13658;44.534;18.694;2023-04-22T05:06:29;26.55;;;15.45;;
25824;SDS011;13658;44.534;18.694;2023-04-22T05:09:01;29.70;;;19.33;;
25824;SDS011;13658;44.534;18.694;2023-04-22T05:11:27;34.78;;;16.58;;
25824;SDS011;13658;44.534;18.694;2023-04-22T05:13:55;31.10;;;16.92;;
25824;SDS011;13658;44.534;18.694;2023-04-22T05:16:32;30.10;;;17.38;;
25824;SDS011;13658;44.534;18.694;2023-04-22T05:18:59;29.30;;;18.20;;
25824;SDS011;13658;44.534;18.694;2023-04-22T05:21:25;31.33;;;18.85;;
25824;SDS011;13658;44.534;18.694;2023-04-22T05:23:52;32.75;;;19.85;;
25824;SDS011;13658;44.534;18.694;2023-04-22T05:26:18;37.22;;;19.70;;
25824;SDS011;13658;44.534;18.694;2023-04-22T05:28:47;32.53;;;20.70;;
25824;SDS011;13658;44.534;18.694;2023-04-22T05:31:15;41.63;;;23.33;;
25824;SDS011;13658;44.534;18.694;2023-04-22T05:33:41;40.55;;;22.35;;
25824;SDS011;13658;44.534;18.694;2023-04-22T05:36:07;41.65;;;22.73;;
25824;SDS011;13658;44.534;18.694;2023-04-22T05:38:34;36.85;;;21.80;;
25824;SDS011;13658;44.534;18.694;2023-04-22T05:41:00;38.47;;;23.10;;
25824;SDS011;13658;44.534;18.694;2023-04-22T05:43:26;40.13;;;22.75;;
25824;SDS011;13658;44.534;18.694;2023-04-22T05:45:59;36.60;;;21.85;;
25824;SDS011;13658;44.534;18.694;2023-04-22T05:48:25;34.45;;;20.73;;
25824;SDS011;13658;44.534;18.694;2023-04-22T05:50:58;33.25;;;20.27;;
25824;SDS011;13658;44.534;18.694;2023-04-22T05:53:27;27.73;;;17.23;;
25824;SDS011;13658;44.534;18.694;2023-04-22T05:55:53;30.27;;;18.05;;
25824;SDS011;13658;44.534;18.694;2023-04-22T05:58:19;26.10;;;16.23;;
25824;SDS011;13658;44.534;18.694;2023-04-22T06:00:50;28.13;;;17.17;;
25824;SDS011;13658;44.534;18.694;2023-04-22T06:03:42;25.70;;;16.05;;
25824;SDS011;13658;44.534;18.694;2023-04-22T06:06:08;27.05;;;17.40;;
25824;SDS011;13658;44.534;18.694;2023-04-22T06:08:38;30.75;;;17.92;;
25824;SDS011;13658;44.534;18.694;2023-04-22T06:11:04;30.02;;;15.05;;
25824;SDS011;13658;44.534;18.694;2023-04-22T06:13:33;30.00;;;18.63;;
25824;SDS011;13658;44.534;18.694;2023-04-22T06:15:59;28.73;;;17.20;;
25824;SDS011;13658;44.534;18.694;2023-04-22T06:18:25;24.98;;;16.45;;
25824;SDS011;13658;44.534;18.694;2023-04-22T06:20:52;30.77;;;18.00;;
25824;SDS011;13658;44.534;18.694;2023-04-22T06:23:20;28.15;;;18.27;;
25824;SDS011;13658;44.534;18.694;2023-04-22T06:25:46;24.85;;;14.60;;
25824;SDS011;13658;44.534;18.694;2023-04-22T06:28:13;23.50;;;14.50;;
25824;SDS011;13658;44.534;18.694;2023-04-22T06:30:39;25.35;;;15.45;;
25824;SDS011;13658;44.534;18.694;2023-04-22T06:33:05;23.42;;;14.80;;
25824;SDS011;13658;44.534;18.694;2023-04-22T06:35:31;29.55;;;20.17;;
25824;SDS011;13658;44.534;18.694;2023-04-22T06:37:59;24.02;;;15.02;;
25824;SDS011;13658;44.534;18.694;2023-04-22T06:40:29;27.58;;;14.13;;
25824;SDS011;13658;44.534;18.694;2023-04-22T06:43:08;27.52;;;17.65;;
25824;SDS011;13658;44.534;18.694;2023-04-22T06:46:03;28.52;;;17.15;;
25824;SDS011;13658;44.534;18.694;2023-04-22T06:48:58;26.43;;;16.07;;
25824;SDS011;13658;44.534;18.694;2023-04-22T06:51:24;25.08;;;14.98;;
25824;SDS011;13658;44.534;18.694;2023-04-22T06:53:50;24.15;;;15.38;;
25824;SDS011;13658;44.534;18.694;2023-04-22T06:56:16;25.95;;;14.10;;
25824;SDS011;13658;44.534;18.694;2023-04-22T06:58:42;22.17;;;13.73;;
25824;SDS011;13658;44.534;18.694;2023-04-22T07:01:08;23.77;;;14.07;;
25824;SDS011;13658;44.534;18.694;2023-04-22T07:03:36;128.10;;;81.47;;
25824;SDS011;13658;44.534;18.694;2023-04-22T07:06:07;53.50;;;36.05;;
25824;SDS011;13658;44.534;18.694;2023-04-22T07:08:37;28.48;;;16.45;;
25824;SDS011;13658;44.534;18.694;2023-04-22T07:11:03;30.90;;;16.02;;
25824;SDS011;13658;44.534;18.694;2023-04-22T07:13:39;27.65;;;16.90;;
25824;SDS011;13658;44.534;18.694;2023-04-22T07:16:05;27.13;;;16.58;;
25824;SDS011;13658;44.534;18.694;2023-04-22T07:18:31;31.48;;;17.40;;
25824;SDS011;13658;44.534;18.694;2023-04-22T07:20:59;36.63;;;22.60;;
25824;SDS011;13658;44.534;18.694;2023-04-22T07:23:25;36.90;;;20.33;;
25824;SDS011;13658;44.534;18.694;2023-04-22T07:25:52;32.83;;;18.83;;
25824;SDS011;13658;44.534;18.694;2023-04-22T07:28:18;34.15;;;19.13;;
25824;SDS011;13658;44.534;18.694;2023-04-22T07:30:44;33.80;;;18.90;;
25824;SDS011;13658;44.534;18.694;2023-04-22T07:33:10;41.83;;;19.75;;
25824;SDS011;13658;44.534;18.694;2023-04-22T07:35:36;34.70;;;19.23;;
25824;SDS011;13658;44.534;18.694;2023-04-22T07:38:02;30.63;;;17.45;;
25824;SDS011;13658;44.534;18.694;2023-04-22T07:40:28;34.10;;;18.80;;
25824;SDS011;13658;44.534;18.694;2023-04-22T07:42:54;28.80;;;16.75;;
25824;SDS011;13658;44.534;18.694;2023-04-22T07:45:20;31.50;;;17.80;;
25824;SDS011;13658;44.534;18.694;2023-04-22T07:47:46;45.92;;;25.42;;
25824;SDS011;13658;44.534;18.694;2023-04-22T07:50:12;27.77;;;17.17;;
25824;SDS011;13658;44.534;18.694;2023-04-22T07:52:38;27.52;;;16.75;;
25824;SDS011;13658;44.534;18.694;2023-04-22T07:55:04;27.50;;;17.63;;
25824;SDS011;13658;44.534;18.694;2023-04-22T07:57:31;26.55;;;18.05;;
25824;SDS011;13658;44.534;18.694;2023-04-22T08:00:03;26.98;;;16.77;;
25824;SDS011;13658;44.534;18.694;2023-04-22T08:02:41;32.50;;;18.15;;
25824;SDS011;13658;44.534;18.694;2023-04-22T08:05:08;27.30;;;18.52;;
25824;SDS011;13658;44.534;18.694;2023-04-22T08:07:35;26.40;;;17.98;;
25824;SDS011;13658;44.534;18.694;2023-04-22T08:10:00;28.60;;;18.38;;
25824;SDS011;13658;44.534;18.694;2023-04-22T08:12:27;26.88;;;17.10;;
25824;SDS011;13658;44.534;18.694;2023-04-22T08:14:53;30.08;;;18.92;;
25824;SDS011;13658;44.534;18.694;2023-04-22T08:17:19;25.25;;;18.40;;
25824;SDS011;13658;44.534;18.694;2023-04-22T08:19:46;27.63;;;18.60;;
25824;SDS011;13658;44.534;18.694;2023-04-22T08:22:13;29.23;;;17.60;;
25824;SDS011;13658;44.534;18.694;2023-04-22T08:24:39;27.38;;;16.05;;
25824;SDS011;13658;44.534;18.694;2023-04-22T08:27:05;23.02;;;14.65;;
25824;SDS011;13658;44.534;18.694;2023-04-22T08:29:32;23.48;;;14.35;;
25824;SDS011;13658;44.534;18.694;2023-04-22T08:31:58;19.70;;;12.88;;
25824;SDS011;13658;44.534;18.694;2023-04-22T08:34:24;21.85;;;12.55;;
25824;SDS011;13658;44.534;18.694;2023-04-22T08:36:51;18.92;;;12.30;;
25824;SDS011;13658;44.534;18.694;2023-04-22T08:39:18;30.77;;;13.90;;
25824;SDS011;13658;44.534;18.694;2023-04-22T08:41:44;30.63;;;12.45;;
25824;SDS011;13658;44.534;18.694;2023-04-22T08:44:12;18.23;;;11.93;;
25824;SDS011;13658;44.534;18.694;2023-04-22T08:46:39;20.08;;;12.05;;
25824;SDS011;13658;44.534;18.694;2023-04-22T08:49:11;20.10;;;12.63;;
25824;SDS011;13658;44.534;18.694;2023-04-22T08:51:41;18.02;;;11.65;;
25824;SDS011;13658;44.534;18.694;2023-04-22T08:54:08;16.90;;;11.25;;
25824;SDS011;13658;44.534;18.694;2023-04-22T08:56:35;18.30;;;12.80;;
25824;SDS011;13658;44.534;18.694;2023-04-22T08:59:05;21.58;;;12.13;;
25824;SDS011;13658;44.534;18.694;2023-04-22T09:01:31;22.25;;;12.55;;
25824;SDS011;13658;44.534;18.694;2023-04-22T09:03:58;24.02;;;15.10;;
25824;SDS011;13658;44.534;18.694;2023-04-22T09:06:25;17.70;;;10.35;;
25824;SDS011;13658;44.534;18.694;2023-04-22T09:08:51;17.27;;;10.68;;
25824;SDS011;13658;44.534;18.694;2023-04-22T09:11:18;18.77;;;10.75;;
25824;SDS011;13658;44.534;18.694;2023-04-22T09:13:44;45.17;;;32.70;;
25824;SDS011;13658;44.534;18.694;2023-04-22T09:16:11;25.05;;;16.38;;
25824;SDS011;13658;44.534;18.694;2023-04-22T09:18:40;15.13;;;8.85;;
25824;SDS011;13658;44.534;18.694;2023-04-22T09:21:07;14.80;;;8.77;;
25824;SDS011;13658;44.534;18.694;2023-04-22T09:23:42;12.68;;;8.68;;
25824;SDS011;13658;44.534;18.694;2023-04-22T09:26:10;13.13;;;8.73;;
25824;SDS011;13658;44.534;18.694;2023-04-22T09:28:36;18.02;;;11.27;;
25824;SDS011;13658;44.534;18.694;2023-04-22T09:31:02;12.63;;;8.63;;
25824;SDS011;13658;44.534;18.694;2023-04-22T09:33:29;11.13;;;8.27;;
25824;SDS011;13658;44.534;18.694;2023-04-22T09:35:56;11.30;;;8.32;;
25824;SDS011;13658;44.534;18.694;2023-04-22T09:38:22;13.82;;;8.13;;
25824;SDS011;13658;44.534;18.694;2023-04-22T09:40:48;12.55;;;8.07;;
25824;SDS011;13658;44.534;18.694;2023-04-22T09:43:16;12.23;;;7.88;;
25824;SDS011;13658;44.534;18.694;2023-04-22T09:45:44;12.43;;;7.65;;
25824;SDS011;13658;44.534;18.694;2023-04-22T09:48:11;13.77;;;7.53;;
25824;SDS011;13658;44.534;18.694;2023-04-22T09:50:43;12.82;;;7.85;;
25824;SDS011;13658;44.534;18.694;2023-04-22T09:53:13;10.82;;;7.63;;
25824;SDS011;13658;44.534;18.694;2023-04-22T09:55:41;10.65;;;7.63;;
25824;SDS011;13658;44.534;18.694;2023-04-22T09:58:14;12.52;;;8.05;;
25824;SDS011;13658;44.534;18.694;2023-04-22T10:01:03;9.90;;;7.07;;
25824;SDS011;13658;44.534;18.694;2023-04-22T10:03:28;21.40;;;10.93;;
25824;SDS011;13658;44.534;18.694;2023-04-22T10:05:54;13.02;;;8.20;;
25824;SDS011;13658;44.534;18.694;2023-04-22T10:08:20;13.35;;;7.82;;
25824;SDS011;13658;44.534;18.694;2023-04-22T10:10:46;11.73;;;7.40;;
25824;SDS011;13658;44.534;18.694;2023-04-22T10:13:12;11.65;;;7.47;;
25824;SDS011;13658;44.534;18.694;2023-04-22T10:15:39;12.02;;;7.30;;
25824;SDS011;13658;44.534;18.694;2023-04-22T10:18:07;14.25;;;8.00;;
25824;SDS011;13658;44.534;18.694;2023-04-22T10:20:36;11.10;;;8.20;;
25824;SDS011;13658;44.534;18.694;2023-04-22T10:23:05;10.90;;;6.68;;
25824;SDS011;13658;44.534;18.694;2023-04-22T10:25:36;14.70;;;6.82;;
25824;SDS011;13658;44.534;18.694;2023-04-22T10:28:06;7.65;;;6.47;;
25824;SDS011;13658;44.534;18.694;2023-04-22T10:30:34;9.05;;;6.60;;
25824;SDS011;13658;44.534;18.694;2023-04-22T10:41:38;12.23;;;7.20;;
25824;SDS011;13658;44.534;18.694;2023-04-22T10:44:07;18.67;;;15.17;;
25824;SDS011;13658;44.534;18.694;2023-04-22T10:51:38;11.52;;;7.60;;
25824;SDS011;13658;44.534;18.694;2023-04-22T10:59:29;15.98;;;8.00;;
25824;SDS011;13658;44.534;18.694;2023-04-22T11:02:02;9.35;;;6.38;;
25824;SDS011;13658;44.534;18.694;2023-04-22T11:04:31;9.20;;;5.97;;
25824;SDS011;13658;44.534;18.694;2023-04-22T11:09:43;9.77;;;6.28;;
25824;SDS011;13658;44.534;18.694;2023-04-22T11:15:04;10.10;;;7.70;;
25824;SDS011;13658;44.534;18.694;2023-04-22T11:17:32;33.28;;;24.58;;
25824;SDS011;13658;44.534;18.694;2023-04-22T11:19:58;29.40;;;19.58;;
25824;SDS011;13658;44.534;18.694;2023-04-22T11:22:25;42.97;;;28.13;;
25824;SDS011;13658;44.534;18.694;2023-04-22T11:27:25;14.07;;;8.88;;
25824;SDS011;13658;44.534;18.694;2023-04-22T11:30:01;19.05;;;13.73;;
25824;SDS011;13658;44.534;18.694;2023-04-22T11:32:33;17.20;;;10.65;;
25824;SDS011;13658;44.534;18.694;2023-04-22T11:35:03;9.75;;;6.60;;
25824;SDS011;13658;44.534;18.694;2023-04-22T11:37:50;11.15;;;8.55;;
25824;SDS011;13658;44.534;18.694;2023-04-22T11:40:27;10.95;;;5.47;;
25824;SDS011;13658;44.534;18.694;2023-04-22T11:42:58;21.08;;;12.55;;
25824;SDS011;13658;44.534;18.694;2023-04-22T11:45:26;8.98;;;5.88;;
25824;SDS011;13658;44.534;18.694;2023-04-22T11:47:53;14.57;;;8.10;;
25824;SDS011;13658;44.534;18.694;2023-04-22T11:50:24;9.80;;;5.55;;
25824;SDS011;13658;44.534;18.694;2023-04-22T11:52:53;13.95;;;8.52;;
25824;SDS011;13658;44.534;18.694;2023-04-22T11:55:24;10.10;;;7.55;;
25824;SDS011;13658;44.534;18.694;2023-04-22T11:57:59;10.93;;;6.13;;
25824;SDS011;13658;44.534;18.694;2023-04-22T12:00:30;9.48;;;6.50;;
25824;SDS011;13658;44.534;18.694;2023-04-22T12:02:59;7.07;;;4.90;;
25824;SDS011;13658;44.534;18.694;2023-04-22T12:08:07;9.57;;;5.20;;
25824;SDS011;13658;44.534;18.694;2023-04-22T12:10:45;7.93;;;5.28;;
25824;SDS011;13658;44.534;18.694;2023-04-22T12:13:20;8.27;;;4.90;;
25824;SDS011;13658;44.534;18.694;2023-04-22T12:15:57;6.68;;;5.18;;
25824;SDS011;13658;44.534;18.694;2023-04-22T12:21:08;20.58;;;13.40;;
25824;SDS011;13658;44.534;18.694;2023-04-22T12:23:41;12.73;;;6.55;;
25824;SDS011;13658;44.534;18.694;2023-04-22T12:26:09;6.10;;;4.97;;
25824;SDS011;13658;44.534;18.694;2023-04-22T12:28:36;9.43;;;5.40;;
25824;SDS011;13658;44.534;18.694;2023-04-22T12:31:02;9.02;;;5.13;;
25824;SDS011;13658;44.534;18.694;2023-04-22T12:33:28;5.30;;;4.80;;
25824;SDS011;13658;44.534;18.694;2023-04-22T12:35:54;8.55;;;5.30;;
25824;SDS011;13658;44.534;18.694;2023-04-22T12:38:21;8.88;;;5.25;;
25824;SDS011;13658;44.534;18.694;2023-04-22T12:40:47;10.93;;;8.02;;
25824;SDS011;13658;44.534;18.694;2023-04-22T12:43:13;20.05;;;13.80;;
25824;SDS011;13658;44.534;18.694;2023-04-22T12:45:39;10.45;;;6.47;;
25824;SDS011;13658;44.534;18.694;2023-04-22T12:48:05;9.85;;;6.18;;
25824;SDS011;13658;44.534;18.694;2023-04-22T12:50:31;7.43;;;5.30;;
25824;SDS011;13658;44.534;18.694;2023-04-22T12:52:57;8.23;;;5.15;;
25824;SDS011;13658;44.534;18.694;2023-04-22T12:55:23;9.07;;;5.07;;
25824;SDS011;13658;44.534;18.694;2023-04-22T12:57:49;8.07;;;5.25;;
25824;SDS011;13658;44.534;18.694;2023-04-22T13:00:16;8.98;;;5.03;;
25824;SDS011;13658;44.534;18.694;2023-04-22T13:02:44;8.13;;;5.25;;
25824;SDS011;13658;44.534;18.694;2023-04-22T13:05:12;10.75;;;5.43;;
25824;SDS011;13658;44.534;18.694;2023-04-22T13:07:39;8.63;;;5.65;;
25824;SDS011;13658;44.534;18.694;2023-04-22T13:10:11;21.58;;;14.25;;
25824;SDS011;13658;44.534;18.694;2023-04-22T13:12:38;8.93;;;5.97;;
25824;SDS011;13658;44.534;18.694;2023-04-22T13:15:06;7.35;;;5.40;;
25824;SDS011;13658;44.534;18.694;2023-04-22T13:17:33;10.05;;;6.68;;
25824;SDS011;13658;44.534;18.694;2023-04-22T13:19:59;6.78;;;5.20;;
25824;SDS011;13658;44.534;18.694;2023-04-22T13:22:25;8.73;;;5.63;;
25824;SDS011;13658;44.534;18.694;2023-04-22T13:24:52;11.00;;;6.65;;
25824;SDS011;13658;44.534;18.694;2023-04-22T13:27:18;6.55;;;5.20;;
25824;SDS011;13658;44.534;18.694;2023-04-22T13:29:44;13.63;;;9.13;;
25824;SDS011;13658;44.534;18.694;2023-04-22T13:32:10;14.65;;;9.27;;
25824;SDS011;13658;44.534;18.694;2023-04-22T13:34:39;7.95;;;6.05;;
25824;SDS011;13658;44.534;18.694;2023-04-22T13:37:05;14.18;;;8.60;;
25824;SDS011;13658;44.534;18.694;2023-04-22T13:39:32;8.70;;;5.80;;
25824;SDS011;13658;44.534;18.694;2023-04-22T13:41:58;7.35;;;4.93;;
25824;SDS011;13658;44.534;18.694;2023-04-22T13:44:24;9.50;;;4.82;;
25824;SDS011;13658;44.534;18.694;2023-04-22T13:46:50;12.52;;;8.48;;
25824;SDS011;13658;44.534;18.694;2023-04-22T13:49:16;14.68;;;7.05;;
25824;SDS011;13658;44.534;18.694;2023-04-22T13:51:42;7.35;;;5.53;;
25824;SDS011;13658;44.534;18.694;2023-04-22T13:54:08;16.95;;;9.70;;
25824;SDS011;13658;44.534;18.694;2023-04-22T13:56:34;8.75;;;5.72;;
25824;SDS011;13658;44.534;18.694;2023-04-22T13:59:01;8.18;;;4.90;;
25824;SDS011;13658;44.534;18.694;2023-04-22T14:01:27;6.57;;;5.30;;
25824;SDS011;13658;44.534;18.694;2023-04-22T14:03:53;6.93;;;5.38;;
25824;SDS011;13658;44.534;18.694;2023-04-22T14:06:20;8.52;;;5.57;;
25824;SDS011;13658;44.534;18.694;2023-04-22T14:08:46;9.23;;;5.53;;
25824;SDS011;13658;44.534;18.694;2023-04-22T14:11:12;13.02;;;6.05;;
25824;SDS011;13658;44.534;18.694;2023-04-22T14:13:38;10.88;;;5.82;;
25824;SDS011;13658;44.534;18.694;2023-04-22T14:16:04;10.55;;;6.93;;
25824;SDS011;13658;44.534;18.694;2023-04-22T14:18:35;9.10;;;5.03;;
25824;SDS011;13658;44.534;18.694;2023-04-22T14:21:05;11.27;;;6.50;;
25824;SDS011;13658;44.534;18.694;2023-04-22T14:23:34;7.10;;;5.13;;
25824;SDS011;13658;44.534;18.694;2023-04-22T14:26:01;9.00;;;5.00;;
25824;SDS011;13658;44.534;18.694;2023-04-22T14:28:27;8.68;;;5.45;;
25824;SDS011;13658;44.534;18.694;2023-04-22T14:30:53;10.40;;;5.32;;
25824;SDS011;13658;44.534;18.694;2023-04-22T14:33:20;6.80;;;5.38;;
25824;SDS011;13658;44.534;18.694;2023-04-22T14:35:48;8.18;;;4.82;;
25824;SDS011;13658;44.534;18.694;2023-04-22T14:38:15;9.00;;;5.03;;
25824;SDS011;13658;44.534;18.694;2023-04-22T14:40:41;8.77;;;5.20;;
25824;SDS011;13658;44.534;18.694;2023-04-22T14:43:07;11.35;;;7.80;;
25824;SDS011;13658;44.534;18.694;2023-04-22T14:45:33;6.95;;;5.22;;
25824;SDS011;13658;44.534;18.694;2023-04-22T14:47:59;5.85;;;5.03;;
25824;SDS011;13658;44.534;18.694;2023-04-22T14:50:26;9.25;;;5.60;;
25824;SDS011;13658;44.534;18.694;2023-04-22T14:52:52;11.35;;;5.63;;
25824;SDS011;13658;44.534;18.694;2023-04-22T14:55:18;8.38;;;5.25;;